Island Park, ID

4:12 PM MST on January 25, 2015 (GMT -0700)
Centennial Shores | Change Station
CLOSE
Current Station
Personal Weather Station
Location: Island Park, ID
Elevation: 6295 ft
Nearby Weather Stations

Elev 6295 ft 44.44 °N, 111.46 °W | Updated 28 seconds ago

Partly Cloudy
Partly Cloudy
32.9 °F
Feels Like 33 °F
N
0.0
Wind Variable Wind from NW
Gusts 0.0 mph

Today
High -- | Low -- °F
--% Chance of Precip.
Yesterday
High -- | Low -- °F
Precip. -- in
7:51 AM 5:25 PM
Waxing Crescent, 36% visible
Pressure 30.44 in
Visibility 9.0 miles
Clouds Mostly Cloudy 500 ft
Overcast 1100 ft
Windchill 33 °F
Dew Point 18 °F
Humidity 22%
Rainfall -999.00 in
Snow Depth Not available.
UV 0 out of 12
Pollen .10 out of 12
Air Quality Not available.
Flu Activity Not available.
SPECI KRXE 252306Z AUTO 07003KT 9SM BKN005 OVC011 M01/M01 A3044 RMK AO2 T10061006

More Conditions Fewer Conditions

Pressure 30.44 in
Visibility 9.0 miles
Clouds Mostly Cloudy 500 ft
Overcast 1100 ft
Windchill 33 °F
Dew Point 18 °F
Humidity 22%
Rainfall -999.00 in
Snow Depth Not available.
UV 0 out of 12
Pollen .10 out of 12
Air Quality Not available.
Flu Activity Not available.
SPECI KRXE 252306Z AUTO 07003KT 9SM BKN005 OVC011 M01/M01 A3044 RMK AO2 T10061006

More Conditions Fewer Conditions

10-Day Weather Forecast

Almanac

Astronomy

Jan. 25, 2015 Rise Set
Actual Time
Civil Twilight
Nautical Twilight
Astronomical Twilight
Moon
Length of Visible Light
Length of Day
Tomorrow will be .
, % of the Moon is Illuminated

Today's Extremes

State Highs State Lows

Community

WunderPhotos

Upload Photos

1,790,085 photos uploaded!

WunderBlogs® & News

Nearby

Air Quality

  Air Quality AQ Index Pollutant
Not available.

Snow Depth

Station Depth Elevation

Earthquake Activity

City Distance Mag. Time & Date
Minimum magnitude displayed is 2.5.

Coastal Water Temperatures

Place Temperature

Nearby Weather Stations